Port Bolivar, Texas
Current Conditions -  °F | °C
As of 12:52 PM on Thursday 27 Nov 2014 (Local Time) from KGLS Reporting Station
Clear Clear  
Wind Chill: 61°   Ceiling: Unl
Heat Index: 61°   Visibility: 10mi
Dew Point: 36°   Wind: 9mph
Humidity: 39%   Direction: 60°ENE
Pressure: 30.45"   Gusts: NA
Location:  29.38°N, 94.77°W
Report Text: KGLS 271852Z 06008KT 10SM CLR 16/02 A3045 RMK AO2 SLP309 T01610022
Loading
Personal Weather Stations






























Interactive Weather Map New forecast layout! Learn more

10-Day Weather Forecast

Advertisements
Track Severe Weather on mobile